Capitol Logistics 951

Operating for DHL



LSGG
Geneve-Cointrin Airport
Geneva, CH
EDDK
Cologne Bonn Airport
Cologne, DE

Route Details

Aircraft Information
Group: European Fleet
Types: A30F,A31F,B738
Route Data
Demand: V
Distance: 281nm
Duration: 1h 05m
Recm'd Route: MOLU4N MOLUS UN871 DITON T163 KOVAN T844 ASKIK/N0451F240 T840 GULKO GULK2V
Origin Wx: LSGG 272250Z AUTO 05009KT 9999 NCD 17/11 Q1021 NOSIG
Dest. Wx: EDDK 272220Z AUTO 31005KT 280V340 CAVOK 10/04 Q1023 NOSIG
Notes:

Financial History
Total Freight: 193,116lbs
Average Load: 64,372lbs/flt
Fuel Used: 39,955lbs
Avg. Fuel Used: 13,318lbs/flt
Fuel Expense: $15,013
Avg. Fuel Expense: $5,004
Avg. Fuel Cost: $0.37/lbs
Total Gross Income: $394,150
Pilot Pay: $777
Total Expenses: $54,768
Total Revenue: $323,509
Average Revenue: $131,383.25